Time;durP1;ratioP1;P1;durP2;ratioP2;P2;SDS_P1;SDS_P2;PMS_P1;PMS_P2;Temp;Humidity;BMP_temperature;BMP_pressure;BME280_temperature;BME280_humidity;BME280_pressure;Samples;Min_cycle;Max_cycle;Signal;HPM_P1;HPM_P2
2023/08/04 00:01:39;;;;;;;15.93;7.93;;;;;;;11.78;100.00;93465.47;5008408;28;20044;-61
2023/08/04 00:04:06;;;;;;;4.82;2.00;;;;;;;11.76;100.00;93462.38;5008064;28;20406;-62
2023/08/04 00:06:33;;;;;;;4.67;1.53;;;;;;;11.53;100.00;93466.13;5022981;28;20388;-62
2023/08/04 00:09:00;;;;;;;2.78;1.42;;;;;;;11.38;100.00;93467.69;5008356;28;20048;-62
2023/08/04 00:11:26;;;;;;;3.38;1.63;;;;;;;11.39;100.00;93477.50;5008283;28;20048;-66
2023/08/04 00:13:53;;;;;;;3.35;1.73;;;;;;;11.37;100.00;93482.66;5007956;28;20115;-63
2023/08/04 00:16:20;;;;;;;3.45;1.73;;;;;;;11.50;100.00;93483.47;5008030;28;20111;-62
2023/08/04 00:18:47;;;;;;;4.40;1.70;;;;;;;11.64;100.00;93479.59;5007898;28;20100;-62
2023/08/04 00:21:13;;;;;;;3.53;1.52;;;;;;;11.74;100.00;93473.03;5008044;28;20049;-63
2023/08/04 00:23:40;;;;;;;3.30;1.60;;;;;;;11.70;100.00;93474.34;5007493;28;20060;-62
2023/08/04 00:26:07;;;;;;;6.53;1.63;;;;;;;11.72;100.00;93478.19;5007973;28;20046;-65
2023/08/04 00:28:33;;;;;;;2.85;1.67;;;;;;;11.80;100.00;93478.78;5007850;28;20054;-62
2023/08/04 00:31:00;;;;;;;159.37;82.20;;;;;;;11.80;100.00;93478.78;5008100;28;20442;-62
2023/08/04 00:33:27;;;;;;;26.55;14.10;;;;;;;11.80;100.00;93476.78;5006763;28;20092;-62
2023/08/04 00:35:53;;;;;;;3.88;2.08;;;;;;;11.69;100.00;93478.28;5006537;28;20524;-65
2023/08/04 00:38:20;;;;;;;5.10;2.00;;;;;;;11.68;100.00;93479.50;5006567;28;20041;-64
2023/08/04 00:40:47;;;;;;;4.07;1.75;;;;;;;11.57;100.00;93477.81;5006314;28;20396;-62
2023/08/04 00:43:13;;;;;;;4.33;1.60;;;;;;;11.63;100.00;93472.56;5006500;28;20044;-62
2023/08/04 00:45:40;;;;;;;6.03;1.60;;;;;;;11.71;100.00;93476.66;5007627;28;20143;-65
2023/08/04 00:48:07;;;;;;;4.50;1.45;;;;;;;11.41;100.00;93477.84;5007878;28;20038;-66
2023/08/04 00:50:34;;;;;;;4.03;1.70;;;;;;;11.27;100.00;93475.44;5007834;28;20056;-62
2023/08/04 00:53:01;;;;;;;3.15;1.40;;;;;;;11.24;100.00;93484.53;5007967;28;20121;-68
2023/08/04 00:55:28;;;;;;;3.37;1.90;;;;;;;11.36;100.00;93481.09;5007882;28;20062;-62
2023/08/04 00:57:56;;;;;;;4.40;1.70;;;;;;;11.49;100.00;93475.66;5007047;28;20654;-62
2023/08/04 01:00:23;;;;;;;4.50;1.52;;;;;;;11.55;100.00;93471.97;5006452;28;20046;-62
2023/08/04 01:02:50;;;;;;;3.45;1.38;;;;;;;11.60;100.00;93473.41;5006369;28;20388;-63
2023/08/04 01:05:17;;;;;;;4.07;1.77;;;;;;;11.63;100.00;93469.81;5007743;28;20053;-65
2023/08/04 01:08:00;;;;;;;3.63;1.70;;;;;;;11.65;100.00;93470.16;5007578;28;20053;-62
2023/08/04 01:11:00;;;;;;;4.20;1.70;;;;;;;11.76;100.00;93467.88;5010057;28;20046;-62
2023/08/04 01:13:28;;;;;;;4.88;1.55;;;;;;;11.83;100.00;93468.88;5010459;28;20610;-63
2023/08/04 01:15:56;;;;;;;3.78;1.40;;;;;;;11.71;100.00;93462.13;5011206;28;20038;-62
2023/08/04 01:18:23;;;;;;;5.97;2.70;;;;;;;11.66;100.00;93459.91;5011321;28;20046;-63
2023/08/04 01:20:50;;;;;;;13.63;7.33;;;;;;;11.69;100.00;93459.03;5011146;28;20057;-62
2023/08/04 01:23:17;;;;;;;4.85;2.70;;;;;;;11.68;100.00;93452.78;5011024;28;20041;-62
2023/08/04 01:25:44;;;;;;;3.55;1.58;;;;;;;11.62;100.00;93446.28;4994320;28;20069;-65
2023/08/04 01:28:15;;;;;;;3.72;1.50;;;;;;;11.56;100.00;93448.78;4997518;28;20374;-62
2023/08/04 01:30:54;;;;;;;2.85;1.60;;;;;;;11.57;100.00;93446.81;4991144;28;20479;-63
2023/08/04 01:33:21;;;;;;;2.40;1.40;;;;;;;11.50;100.00;93438.75;4991466;28;20495;-63
2023/08/04 01:35:52;;;;;;;3.53;1.50;;;;;;;11.50;100.00;93431.25;4991146;28;20042;-63
2023/08/04 01:38:18;;;;;;;3.10;1.40;;;;;;;11.47;100.00;93423.91;4991580;28;20508;-63
2023/08/04 01:40:46;;;;;;;3.90;1.70;;;;;;;11.37;100.00;93420.22;4991240;28;20044;-63
2023/08/04 01:43:12;;;;;;;3.38;1.60;;;;;;;11.34;100.00;93425.81;4990917;28;20077;-66
2023/08/04 01:45:39;;;;;;;4.00;1.80;;;;;;;11.24;100.00;93419.38;4991074;28;20062;-67
2023/08/04 01:48:06;;;;;;;3.33;1.50;;;;;;;11.16;100.00;93423.53;4991353;28;20046;-64
2023/08/04 01:50:32;;;;;;;3.45;1.65;;;;;;;11.20;100.00;93427.72;4990612;28;20050;-61
2023/08/04 01:53:00;;;;;;;3.25;1.70;;;;;;;11.12;100.00;93428.34;4991216;28;20047;-62
2023/08/04 01:55:27;;;;;;;3.58;1.90;;;;;;;10.46;100.00;93441.25;4990871;28;20057;-63
2023/08/04 01:57:54;;;;;;;3.80;1.97;;;;;;;10.36;100.00;93440.31;4990553;28;20458;-67
2023/08/04 02:00:21;;;;;;;3.60;1.75;;;;;;;10.75;100.00;93455.88;4990965;28;20447;-65
2023/08/04 02:02:47;;;;;;;4.90;2.00;;;;;;;10.95;100.00;93452.28;4990558;28;20051;-64
2023/08/04 02:05:14;;;;;;;2.65;1.60;;;;;;;11.06;100.00;93449.28;4990745;28;20050;-67
2023/08/04 02:07:41;;;;;;;3.58;1.70;;;;;;;11.10;100.00;93466.44;4990895;28;20047;-63
2023/08/04 02:10:08;;;;;;;2.97;1.50;;;;;;;11.08;100.00;93460.59;4991166;28;20475;-63
2023/08/04 02:12:35;;;;;;;4.28;1.70;;;;;;;11.10;100.00;93458.97;5005148;28;20076;-64
2023/08/04 02:15:04;;;;;;;3.75;2.00;;;;;;;11.12;100.00;93451.06;4990913;28;20038;-67
2023/08/04 02:17:33;;;;;;;3.78;1.92;;;;;;;11.14;100.00;93458.88;4990297;28;20072;-64
2023/08/04 02:20:00;;;;;;;3.15;1.67;;;;;;;11.10;100.00;93456.22;4990672;28;20043;-63
2023/08/04 02:22:27;;;;;;;3.43;1.47;;;;;;;11.08;100.00;93458.63;4990388;28;20046;-66
2023/08/04 02:24:53;;;;;;;3.10;1.52;;;;;;;10.97;100.00;93461.63;4990001;28;20046;-64
2023/08/04 02:27:20;;;;;;;3.22;1.60;;;;;;;10.83;100.00;93464.72;4990567;28;20050;-63
2023/08/04 02:29:47;;;;;;;3.05;1.55;;;;;;;10.84;100.00;93470.97;4990286;28;20537;-63
2023/08/04 02:32:14;;;;;;;3.75;1.50;;;;;;;10.87;100.00;93464.66;4990322;28;20068;-65
2023/08/04 02:34:40;;;;;;;3.00;1.53;;;;;;;10.89;100.00;93468.50;4990376;28;20077;-64
2023/08/04 02:37:07;;;;;;;4.28;1.73;;;;;;;10.52;100.00;93470.53;4990698;28;20054;-67
2023/08/04 02:39:34;;;;;;;3.22;1.73;;;;;;;10.56;100.00;93471.22;4989622;28;20064;-63
2023/08/04 02:42:01;;;;;;;3.35;1.60;;;;;;;10.66;100.00;93466.66;4990448;28;20066;-64
2023/08/04 02:44:28;;;;;;;3.25;1.40;;;;;;;10.72;100.00;93475.16;4989590;28;20050;-63
2023/08/04 02:46:55;;;;;;;3.43;1.60;;;;;;;10.75;100.00;93466.09;4989739;28;20040;-67
2023/08/04 02:49:23;;;;;;;4.95;1.98;;;;;;;10.76;100.00;93468.38;4989921;28;20123;-64
2023/08/04 02:51:49;;;;;;;4.93;2.20;;;;;;;10.84;100.00;93470.97;4989659;28;20072;-67
2023/08/04 02:54:16;;;;;;;3.47;1.55;;;;;;;10.93;100.00;93465.69;4989690;28;20050;-66
2023/08/04 02:56:43;;;;;;;3.80;1.80;;;;;;;10.96;100.00;93457.34;4989409;28;20069;-63
2023/08/04 02:59:10;;;;;;;2.90;1.50;;;;;;;11.02;100.00;93454.84;4989978;28;20046;-64
2023/08/04 03:01:37;;;;;;;4.97;1.88;;;;;;;11.09;100.00;93460.19;4989002;28;20289;-66
2023/08/04 03:04:03;;;;;;;2.92;1.55;;;;;;;11.12;100.00;93453.81;4990033;28;20049;-64
2023/08/04 03:06:30;;;;;;;5.35;1.60;;;;;;;11.21;100.00;93458.72;4989089;28;20048;-66
2023/08/04 03:08:57;;;;;;;3.55;2.00;;;;;;;11.25;100.00;93450.38;4990022;28;20050;-63
2023/08/04 03:11:24;;;;;;;3.50;1.70;;;;;;;11.02;100.00;93452.09;4989634;28;20077;-63
2023/08/04 03:13:51;;;;;;;3.13;2.00;;;;;;;11.19;100.00;93445.41;4987939;28;20042;-64
2023/08/04 03:16:18;;;;;;;4.72;2.13;;;;;;;10.78;100.00;93449.56;4989219;28;20050;-63
2023/08/04 03:18:44;;;;;;;5.60;2.38;;;;;;;10.71;100.00;93446.19;4989238;28;20697;-67
2023/08/04 03:21:11;;;;;;;4.32;2.22;;;;;;;11.05;100.00;93434.78;4989395;28;20050;-65
2023/08/04 03:23:38;;;;;;;6.10;2.40;;;;;;;11.24;100.00;93432.34;4988441;28;20050;-65
2023/08/04 03:26:05;;;;;;;4.00;1.95;;;;;;;11.29;100.00;93431.81;4989367;28;20046;-64
2023/08/04 03:28:31;;;;;;;3.90;1.92;;;;;;;11.31;100.00;93438.44;4988581;28;20077;-64
2023/08/04 03:30:58;;;;;;;4.07;1.90;;;;;;;11.40;100.00;93437.81;4988089;28;20530;-64
2023/08/04 03:33:25;;;;;;;3.50;1.70;;;;;;;11.16;100.00;93440.00;4988753;28;20054;-66
2023/08/04 03:35:52;;;;;;;4.43;1.83;;;;;;;10.67;100.00;93457.25;4988999;28;20050;-63
2023/08/04 03:38:18;;;;;;;3.38;1.70;;;;;;;10.66;100.00;93458.44;4988975;28;20049;-64
2023/08/04 03:40:45;;;;;;;4.00;1.70;;;;;;;10.87;100.00;93462.66;4988582;28;20108;-67
2023/08/04 03:43:12;;;;;;;3.63;1.70;;;;;;;10.98;100.00;93449.44;4989115;28;20423;-64
2023/08/04 03:45:39;;;;;;;4.00;1.95;;;;;;;11.05;100.00;93459.50;4988409;28;20488;-64
2023/08/04 03:48:06;;;;;;;3.27;1.90;;;;;;;11.12;100.00;93445.56;4989085;28;20046;-66
2023/08/04 03:50:32;;;;;;;3.72;1.88;;;;;;;11.06;100.00;93447.28;4988346;28;20052;-63
2023/08/04 03:52:59;;;;;;;5.80;2.10;;;;;;;10.82;100.00;93437.69;4989036;28;20042;-64
2023/08/04 03:55:27;;;;;;;4.63;1.80;;;;;;;10.87;100.00;93450.94;5003680;28;20329;-66
2023/08/04 03:57:54;;;;;;;3.10;1.80;;;;;;;11.00;100.00;93457.25;4988529;28;20046;-65
2023/08/04 04:00:20;;;;;;;4.77;1.80;;;;;;;11.12;100.00;93451.06;4988902;28;20050;-63
2023/08/04 04:02:48;;;;;;;3.97;1.80;;;;;;;11.22;100.00;93456.72;4988451;28;20100;-66
2023/08/04 04:05:15;;;;;;;2.90;1.80;;;;;;;11.27;100.00;93450.72;4984279;28;20043;-63
2023/08/04 04:07:42;;;;;;;3.17;1.77;;;;;;;11.09;100.00;93457.44;4994683;28;20108;-64
2023/08/04 04:10:09;;;;;;;3.42;1.77;;;;;;;11.04;100.00;93460.69;4988895;28;20285;-66
2023/08/04 04:12:35;;;;;;;3.60;1.70;;;;;;;11.02;100.00;93471.31;5003063;28;20042;-63
2023/08/04 04:15:04;;;;;;;3.33;1.60;;;;;;;11.15;100.00;93468.69;4988954;28;20050;-64
2023/08/04 04:17:31;;;;;;;3.97;1.77;;;;;;;11.24;100.00;93465.31;4988137;28;20046;-66
2023/08/04 04:19:58;;;;;;;3.35;1.58;;;;;;;11.30;100.00;93464.34;4989121;28;20526;-66
2023/08/04 04:22:25;;;;;;;4.60;2.28;;;;;;;11.30;100.00;93464.34;4988241;28;20054;-63
2023/08/04 04:24:52;;;;;;;5.13;2.10;;;;;;;11.35;100.00;93465.84;4987021;28;20042;-64
2023/08/04 04:27:18;;;;;;;8.73;2.20;;;;;;;11.27;100.00;93469.94;4988711;28;20042;-67
2023/08/04 04:29:45;;;;;;;10.13;3.00;;;;;;;11.30;100.00;93466.34;4988106;28;20544;-65
2023/08/04 04:32:12;;;;;;;14.65;2.42;;;;;;;11.45;100.00;93472.22;4988592;28;20047;-64
2023/08/04 04:34:40;;;;;;;10.38;2.17;;;;;;;11.51;100.00;93471.28;4987884;28;20403;-66
2023/08/04 04:37:07;;;;;;;6.70;2.13;;;;;;;11.58;100.00;93465.59;4988686;28;20090;-63
2023/08/04 04:39:34;;;;;;;7.30;2.10;;;;;;;11.72;100.00;93478.19;4987964;28;20050;-63
2023/08/04 04:42:02;;;;;;;4.80;2.03;;;;;;;11.84;100.00;93481.44;4987329;28;20380;-62
2023/08/04 04:44:29;;;;;;;10.45;2.50;;;;;;;11.81;100.00;93477.56;4988959;28;20584;-63
2023/08/04 04:46:55;;;;;;;9.82;2.45;;;;;;;11.74;100.00;93477.75;4999501;28;20999;-64
2023/08/04 04:49:22;;;;;;;10.33;2.20;;;;;;;11.77;100.00;93483.19;4992437;28;20046;-62
2023/08/04 04:51:49;;;;;;;13.50;2.58;;;;;;;11.85;100.00;93483.75;5009609;28;20045;-65
2023/08/04 04:54:16;;;;;;;7.75;2.50;;;;;;;11.83;100.00;93477.13;5012017;28;20049;-62
2023/08/04 04:56:43;;;;;;;8.48;3.50;;;;;;;12.03;100.00;93474.25;5009805;28;20042;-63
2023/08/04 04:59:10;;;;;;;11.02;2.10;;;;;;;11.89;100.00;93481.72;5011701;28;20050;-67
2023/08/04 05:01:37;;;;;;;9.90;1.93;;;;;;;11.77;100.00;93482.38;4999854;28;20042;-65
2023/08/04 05:04:04;;;;;;;7.07;2.10;;;;;;;11.61;100.00;93477.72;4994971;28;20096;-63
2023/08/04 05:06:30;;;;;;;5.00;2.08;;;;;;;11.54;100.00;93486.91;4992053;28;20046;-66
2023/08/04 05:08:57;;;;;;;4.80;1.90;;;;;;;11.80;100.00;93484.28;4991155;28;20043;-63
2023/08/04 05:11:24;;;;;;;5.70;2.20;;;;;;;12.01;100.00;93482.94;4992665;28;20127;-65
2023/08/04 05:13:51;;;;;;;6.47;2.23;;;;;;;12.26;100.00;93481.47;4991120;28;20088;-64
2023/08/04 05:16:17;;;;;;;9.50;2.15;;;;;;;12.32;100.00;93480.50;4991969;28;20491;-67
2023/08/04 05:18:44;;;;;;;4.68;2.05;;;;;;;12.54;100.00;93488.13;4991220;28;20093;-64
2023/08/04 05:21:11;;;;;;;7.18;2.20;;;;;;;12.43;100.00;93480.19;4991924;28;20050;-63
2023/08/04 05:23:38;;;;;;;8.65;2.30;;;;;;;12.61;100.00;93479.66;4990775;28;20068;-62
2023/08/04 05:26:04;;;;;;;11.93;2.33;;;;;;;12.81;100.00;93486.94;4990542;28;20486;-64
2023/08/04 05:28:32;;;;;;;7.30;1.90;;;;;;;12.91;100.00;93483.84;4991211;28;20049;-64
2023/08/04 05:31:01;;;;;;;6.55;1.80;;;;;;;12.95;100.00;93484.50;4991778;28;20042;-64
2023/08/04 05:33:29;;;;;;;6.28;2.00;;;;;;;13.06;100.00;93478.66;4991506;28;20550;-67
2023/08/04 05:35:57;;;;;;;4.22;1.80;;;;;;;12.93;100.00;93486.16;4990979;28;20583;-65
2023/08/04 05:38:24;;;;;;;6.33;2.10;;;;;;;12.98;100.00;93488.38;4984851;28;20379;-70
2023/08/04 05:40:51;;;;;;;5.15;2.10;;;;;;;13.12;100.00;93487.13;4980144;28;20072;-66
2023/08/04 05:43:18;;;;;;;9.10;2.13;;;;;;;13.05;100.00;93476.34;4972165;28;20051;-64
2023/08/04 05:45:47;;;;;;;11.85;1.98;;;;;;;13.16;100.00;93483.06;4971067;28;20050;-65
2023/08/04 05:48:14;;;;;;;10.02;2.30;;;;;;;13.47;100.00;93476.97;4972075;28;20544;-65
2023/08/04 05:50:42;;;;;;;7.17;2.00;;;;;;;13.82;100.00;93473.44;4971288;28;20173;-65
2023/08/04 05:53:09;;;;;;;6.88;2.03;;;;;;;14.03;100.00;93474.69;4971824;28;20047;-64
2023/08/04 05:55:36;;;;;;;5.70;1.92;;;;;;;14.46;100.00;93473.13;4970767;28;20066;-68
2023/08/04 05:58:04;;;;;;;5.60;1.98;;;;;;;14.58;100.00;93472.28;4971929;28;20035;-68
2023/08/04 06:00:32;;;;;;;4.30;1.60;;;;;;;14.58;100.00;93475.06;4994977;28;20499;-65
2023/08/04 06:02:59;;;;;;;3.53;1.83;;;;;;;14.63;100.00;93470.94;4997719;28;20503;-65
2023/08/04 06:05:27;;;;;;;7.55;1.80;;;;;;;14.77;100.00;93475.94;4994534;28;20487;-66
2023/08/04 06:07:54;;;;;;;6.63;1.70;;;;;;;14.76;100.00;93479.91;4990634;28;20042;-63
2023/08/04 06:10:20;;;;;;;5.00;1.70;;;;;;;14.65;100.00;93469.28;4979892;28;20043;-65
2023/08/04 06:12:48;;;;;;;6.45;1.73;;;;;;;14.51;100.00;93483.59;4973593;28;20407;-66
2023/08/04 06:15:15;;;;;;;6.27;2.03;;;;;;;14.81;100.00;93486.81;4975002;28;20058;-67
2023/08/04 06:17:43;;;;;;;6.57;1.95;;;;;;;15.11;100.00;93488.81;4973920;28;20043;-66
2023/08/04 06:20:10;;;;;;;5.20;1.90;;;;;;;16.91;100.00;93475.63;4991159;28;20061;-69
2023/08/04 06:22:37;;;;;;;5.25;1.80;;;;;;;19.68;100.00;93474.03;4989925;28;20054;-63
2023/08/04 06:25:05;;;;;;;6.20;1.77;;;;;;;18.62;100.00;93470.34;4995026;28;20038;-63
2023/08/04 06:27:32;;;;;;;5.23;2.00;;;;;;;19.39;100.00;93468.56;4993109;28;20367;-61
2023/08/04 06:30:00;;;;;;;6.90;2.10;;;;;;;21.19;99.77;93467.03;4990524;28;20039;-62
2023/08/04 06:32:28;;;;;;;4.10;1.77;;;;;;;21.56;97.17;93469.09;4990329;28;20153;-70
2023/08/04 06:34:54;;;;;;;6.22;2.00;;;;;;;21.21;97.06;93472.88;4990072;28;20046;-68
2023/08/04 06:37:21;;;;;;;7.35;2.20;;;;;;;20.52;99.15;93477.09;4990678;28;20049;-68
2023/08/04 06:39:49;;;;;;;5.23;2.10;;;;;;;20.04;100.00;93487.91;4989594;28;20515;-66
2023/08/04 06:42:17;;;;;;;6.57;1.80;;;;;;;19.09;100.00;93486.06;4990320;28;20784;-70
2023/08/04 06:44:45;;;;;;;5.60;1.90;;;;;;;18.09;100.00;93492.13;4989745;28;20112;-65
2023/08/04 06:47:12;;;;;;;4.82;1.90;;;;;;;16.90;100.00;93483.19;5005102;28;20406;-67
2023/08/04 06:49:39;;;;;;;4.60;1.90;;;;;;;16.82;100.00;93489.50;4979074;28;20046;-64
2023/08/04 06:52:06;;;;;;;4.50;2.20;;;;;;;16.79;100.00;93485.66;4971361;28;20118;-63
2023/08/04 06:54:34;;;;;;;5.35;1.80;;;;;;;17.39;100.00;93486.81;4969170;28;20051;-65
2023/08/04 06:57:01;;;;;;;5.07;1.90;;;;;;;17.28;100.00;93484.56;4971224;28;20416;-64
2023/08/04 06:59:28;;;;;;;5.78;1.88;;;;;;;17.12;100.00;93493.25;4985712;28;20046;-70
2023/08/04 07:01:55;;;;;;;6.25;2.00;;;;;;;17.13;100.00;93486.50;4989666;28;20178;-64
2023/08/04 07:04:22;;;;;;;5.23;1.70;;;;;;;17.41;100.00;93486.38;4990645;28;20050;-66
2023/08/04 07:06:49;;;;;;;4.15;1.60;;;;;;;18.65;100.00;93488.84;4989049;28;20419;-64
2023/08/04 07:09:15;;;;;;;3.50;1.50;;;;;;;18.77;100.00;93485.78;4990253;28;20047;-64
2023/08/04 07:11:42;;;;;;;3.90;1.20;;;;;;;18.28;100.00;93489.94;5004464;28;20361;-67
2023/08/04 07:14:09;;;;;;;3.95;1.60;;;;;;;17.60;100.00;93492.56;4990379;28;20381;-64
2023/08/04 07:16:36;;;;;;;3.10;1.40;;;;;;;17.17;100.00;93493.41;4989591;28;20050;-68
2023/08/04 07:19:03;;;;;;;3.17;1.10;;;;;;;17.49;100.00;93493.84;4990050;28;20043;-63
2023/08/04 07:21:29;;;;;;;3.22;1.20;;;;;;;17.71;100.00;93501.91;4989778;28;20049;-66
2023/08/04 07:23:56;;;;;;;2.78;1.10;;;;;;;17.57;100.00;93497.06;4991889;28;20426;-68
2023/08/04 07:26:23;;;;;;;3.67;1.20;;;;;;;17.34;100.00;93504.09;5001143;28;20042;-65
2023/08/04 07:28:50;;;;;;;3.57;1.20;;;;;;;17.02;100.00;93505.63;4989762;28;20042;-64
2023/08/04 07:31:16;;;;;;;4.03;1.00;;;;;;;16.55;100.00;93510.47;4989743;28;20047;-68
2023/08/04 07:33:43;;;;;;;3.53;1.20;;;;;;;16.10;100.00;93512.84;4988967;28;20052;-64
2023/08/04 07:36:10;;;;;;;3.10;1.25;;;;;;;16.20;100.00;93508.06;4989749;28;20170;-64
2023/08/04 07:38:37;;;;;;;3.08;1.10;;;;;;;16.37;100.00;93514.03;4989026;28;20410;-63
2023/08/04 07:41:03;;;;;;;3.40;1.00;;;;;;;16.65;100.00;93519.56;4990090;28;20043;-66
2023/08/04 07:43:30;;;;;;;3.60;1.00;;;;;;;17.09;100.00;93511.59;4989141;28;20154;-66
2023/08/04 07:45:57;;;;;;;4.15;1.27;;;;;;;17.31;100.00;93505.06;4989188;28;20034;-62
2023/08/04 07:48:24;;;;;;;4.47;1.20;;;;;;;16.49;100.00;93504.03;4989141;28;20046;-63
2023/08/04 07:50:51;;;;;;;2.60;1.15;;;;;;;16.15;100.00;93500.38;4988893;28;20053;-65
2023/08/04 07:53:18;;;;;;;2.30;1.00;;;;;;;16.43;100.00;93495.56;4989775;28;20495;-64
2023/08/04 07:55:58;;;;;;;2.85;1.20;;;;;;;16.83;100.00;93491.81;4988971;28;20062;-66
2023/08/04 07:58:25;;;;;;;3.55;1.20;;;;;;;17.02;100.00;93497.31;4989478;28;20060;-63
2023/08/04 08:00:52;;;;;;;2.70;1.15;;;;;;;17.10;100.00;93490.97;4988783;28;20054;-64
2023/08/04 08:03:18;;;;;;;2.45;1.00;;;;;;;16.99;100.00;93496.25;4989604;28;20046;-64
2023/08/04 08:05:47;;;;;;;2.77;1.00;;;;;;;16.82;100.00;93495.06;4988637;28;20061;-63
2023/08/04 08:08:16;;;;;;;3.40;1.10;;;;;;;16.70;100.00;93494.75;4989371;28;20113;-63
2023/08/04 08:10:42;;;;;;;2.45;1.10;;;;;;;17.09;100.00;93494.97;4988785;28;20042;-63
2023/08/04 08:13:09;;;;;;;3.33;1.10;;;;;;;17.32;100.00;93489.94;4989476;28;20407;-63
2023/08/04 08:15:36;;;;;;;3.30;1.30;;;;;;;17.66;100.00;93499.00;4987994;28;20678;-65
2023/08/04 08:18:03;;;;;;;2.47;1.10;;;;;;;18.17;100.00;93500.84;4987329;28;20502;-64
2023/08/04 08:20:30;;;;;;;3.05;1.13;;;;;;;18.21;100.00;93500.66;4987687;28;20046;-63
2023/08/04 08:22:57;;;;;;;2.35;1.00;;;;;;;18.28;100.00;93512.16;4988913;28;20399;-61
2023/08/04 08:25:24;;;;;;;3.70;1.10;;;;;;;17.54;100.00;93512.63;4988966;28;20056;-61
2023/08/04 08:27:51;;;;;;;2.70;1.20;;;;;;;17.31;100.00;93516.91;4988162;28;20422;-61
2023/08/04 08:30:18;;;;;;;2.83;1.10;;;;;;;17.31;100.00;93513.38;4989416;28;20050;-62
2023/08/04 08:32:45;;;;;;;2.47;1.00;;;;;;;17.38;100.00;93501.91;4988624;28;20458;-64
2023/08/04 08:35:11;;;;;;;2.92;1.08;;;;;;;17.52;100.00;93506.78;4989443;28;20438;-64
2023/08/04 08:37:38;;;;;;;2.97;1.00;;;;;;;17.61;100.00;93503.19;4988444;28;20073;-63
2023/08/04 08:40:05;;;;;;;2.90;1.10;;;;;;;18.11;100.00;93509.06;4989230;28;20105;-62
2023/08/04 08:42:33;;;;;;;2.50;0.93;;;;;;;17.85;100.00;93508.00;4988705;28;20419;-63
2023/08/04 08:45:01;;;;;;;2.45;0.98;;;;;;;18.56;100.00;93512.69;4988999;28;20039;-63
2023/08/04 08:47:35;;;;;;;3.20;1.35;;;;;;;18.09;100.00;93514.31;4989047;28;20156;-64
2023/08/04 08:50:04;;;;;;;2.38;1.00;;;;;;;18.08;100.00;93510.00;5000801;28;20721;-63
2023/08/04 08:52:35;;;;;;;2.30;1.08;;;;;;;17.95;100.00;93523.38;5008234;28;20366;-64
2023/08/04 08:55:03;;;;;;;2.97;1.30;;;;;;;17.84;100.00;93526.66;5008533;28;20049;-63
2023/08/04 08:57:30;;;;;;;2.28;1.08;;;;;;;18.25;100.00;93527.03;5008859;28;20049;-68
2023/08/04 09:00:02;;;;;;;2.92;1.30;;;;;;;17.99;100.00;93520.41;5006163;28;20489;-62
2023/08/04 09:02:29;;;;;;;4.30;1.30;;;;;;;17.58;100.00;93529.09;5008372;28;20521;-62
2023/08/04 09:04:56;;;;;;;2.65;1.10;;;;;;;17.54;100.00;93531.28;5007665;28;20042;-62
2023/08/04 09:07:23;;;;;;;2.00;1.13;;;;;;;17.39;100.00;93527.69;5008356;28;20077;-65
2023/08/04 09:09:50;;;;;;;3.15;1.00;;;;;;;17.83;100.00;93521.56;5007741;28;21101;-66
2023/08/04 09:12:17;;;;;;;2.92;1.10;;;;;;;18.14;100.00;93518.44;5008387;28;20042;-62
2023/08/04 09:15:03;;;;;;;1.83;0.85;;;;;;;19.22;100.00;93521.94;5007706;28;20038;-62
2023/08/04 09:17:35;;;;;;;3.22;1.10;;;;;;;21.09;98.38;93509.06;5007852;28;20046;-62
2023/08/04 09:20:05;;;;;;;3.20;0.80;;;;;;;22.30;90.99;93507.34;5008629;28;20416;-64
2023/08/04 09:22:37;;;;;;;2.92;0.73;;;;;;;22.49;86.83;93510.47;5007634;28;20508;-63
2023/08/04 09:25:05;;;;;;;2.35;0.70;;;;;;;22.37;84.75;93503.31;5003560;28;20066;-63
2023/08/04 09:27:37;;;;;;;2.60;0.80;;;;;;;21.58;89.85;93500.84;4995939;28;20169;-64
2023/08/04 09:30:10;;;;;;;2.05;0.80;;;;;;;21.65;91.52;93505.19;4988978;28;20045;-63
2023/08/04 09:32:45;;;;;;;2.43;0.80;;;;;;;22.14;88.06;93501.16;4991501;28;20416;-67
2023/08/04 09:35:13;;;;;;;2.20;0.80;;;;;;;23.60;79.77;93490.75;4991770;28;20038;-63
2023/08/04 09:37:40;;;;;;;2.78;0.80;;;;;;;22.72;83.48;93488.91;5005945;28;20053;-66
2023/08/04 09:40:17;;;;;;;1.90;0.70;;;;;;;23.75;76.67;93493.28;4991956;28;20050;-65
2023/08/04 09:42:46;;;;;;;1.73;0.60;;;;;;;24.25;71.96;93490.34;4991265;28;20042;-66
2023/08/04 09:45:17;;;;;;;2.30;0.70;;;;;;;24.18;71.58;93481.72;4992187;28;20373;-65
2023/08/04 09:47:49;;;;;;;2.38;0.70;;;;;;;23.42;74.49;93476.00;4990954;28;20073;-62
2023/08/04 09:50:22;;;;;;;1.75;0.60;;;;;;;25.27;65.25;93462.53;4991604;28;20492;-63
2023/08/04 09:53:01;;;;;;;2.22;0.73;;;;;;;22.91;74.66;93466.81;4990876;28;20050;-62
2023/08/04 09:55:28;;;;;;;1.40;0.50;;;;;;;22.91;74.66;93459.16;4991739;28;20050;-67
2023/08/04 09:57:59;;;;;;;1.90;0.73;;;;;;;23.37;74.51;93468.38;4990834;28;20383;-65
2023/08/04 10:00:26;;;;;;;2.50;0.60;;;;;;;24.49;67.83;93472.91;4991881;28;20053;-67
2023/08/04 10:02:53;;;;;;;3.22;0.75;;;;;;;25.01;63.93;93479.00;4989723;28;20049;-62
2023/08/04 10:05:21;;;;;;;1.92;0.70;;;;;;;22.33;74.74;93475.56;4991689;28;20509;-62
2023/08/04 10:07:48;;;;;;;1.80;0.70;;;;;;;22.31;75.61;93480.91;4990577;28;20046;-63
2023/08/04 10:10:16;;;;;;;2.47;0.60;;;;;;;21.50;79.19;93480.22;4991493;28;20046;-61
2023/08/04 10:12:43;;;;;;;1.60;0.60;;;;;;;21.79;79.08;93469.97;4990668;28;20433;-62
2023/08/04 10:15:10;;;;;;;1.75;0.70;;;;;;;21.15;82.32;93476.41;4991395;28;20049;-62
2023/08/04 10:17:41;;;;;;;1.60;0.60;;;;;;;21.12;85.48;93474.59;4990569;28;20446;-65
2023/08/04 10:20:09;;;;;;;1.80;0.70;;;;;;;21.91;85.16;93491.91;4991184;28;20495;-62
2023/08/04 10:22:42;;;;;;;2.70;0.70;;;;;;;22.13;81.63;93479.28;4990430;28;20506;-62
2023/08/04 10:25:15;;;;;;;1.95;0.90;;;;;;;22.13;79.90;93484.88;4991205;28;20391;-61
2023/08/04 10:27:47;;;;;;;2.05;0.82;;;;;;;22.88;75.82;93482.59;4990076;28;20057;-61
2023/08/04 10:30:14;;;;;;;1.65;0.60;;;;;;;22.40;81.60;93475.09;4990984;28;20395;-62
2023/08/04 10:32:42;;;;;;;2.05;0.90;;;;;;;22.19;80.95;93480.06;4990448;28;20058;-67
2023/08/04 10:35:21;;;;;;;1.70;0.60;;;;;;;22.06;79.44;93479.78;4989811;28;20035;-61
2023/08/04 10:37:50;;;;;;;2.33;0.80;;;;;;;22.11;77.73;93482.59;4990217;28;20077;-63
2023/08/04 10:40:32;;;;;;;1.90;0.70;;;;;;;22.79;76.54;93480.00;4990995;28;20054;-62
2023/08/04 10:42:58;;;;;;;1.90;0.70;;;;;;;23.00;72.93;93483.38;5009217;28;20072;-67
2023/08/04 10:46:09;;;;;;;1.80;0.80;;;;;;;23.34;70.46;93477.78;5010716;28;20060;-63
2023/08/04 10:48:40;;;;;;;2.20;0.90;;;;;;;22.62;72.38;93468.06;5008832;28;21120;-62
2023/08/04 10:51:08;;;;;;;1.70;0.73;;;;;;;22.50;74.22;93470.81;5010061;28;20056;-62
2023/08/04 10:53:35;;;;;;;1.90;0.70;;;;;;;21.72;80.59;93479.59;5009530;28;20054;-65
2023/08/04 10:56:06;;;;;;;1.83;0.60;;;;;;;21.72;82.18;93490.78;5008895;28;20046;-61
2023/08/04 10:58:33;;;;;;;1.60;0.60;;;;;;;21.02;84.08;93487.19;5009872;28;20054;-62
2023/08/04 11:00:59;;;;;;;1.60;0.57;;;;;;;21.04;83.10;93492.28;5010132;28;20103;-61
2023/08/04 11:03:33;;;;;;;1.83;0.60;;;;;;;21.23;83.72;93493.47;5010249;28;20042;-61
2023/08/04 11:06:00;;;;;;;1.90;0.50;;;;;;;21.00;83.60;93494.53;5008791;28;20046;-62
2023/08/04 11:08:27;;;;;;;1.50;0.57;;;;;;;20.83;83.69;93505.53;5009641;28;20056;-65
2023/08/04 11:10:56;;;;;;;2.00;0.73;;;;;;;19.83;86.25;93507.41;5007797;28;20052;-61
2023/08/04 11:13:25;;;;;;;1.50;0.60;;;;;;;19.84;87.98;93505.38;5010022;28;20046;-62
2023/08/04 11:15:53;;;;;;;2.85;0.70;;;;;;;19.63;91.71;93524.81;5009287;28;20100;-62
2023/08/04 11:18:30;;;;;;;2.05;0.70;;;;;;;19.54;92.32;93525.72;5009890;28;20579;-62
2023/08/04 11:21:03;;;;;;;1.75;0.82;;;;;;;19.21;93.63;93516.84;5008704;28;20309;-64
2023/08/04 11:23:31;;;;;;;1.77;0.80;;;;;;;19.02;94.18;93521.84;5009272;28;20122;-65
2023/08/04 11:25:59;;;;;;;1.80;0.70;;;;;;;19.25;97.34;93528.53;4988755;28;20241;-62
2023/08/04 11:28:26;;;;;;;2.78;1.10;;;;;;;18.55;100.00;93535.38;4988814;28;20115;-61
2023/08/04 11:31:05;;;;;;;1.70;0.80;;;;;;;18.71;100.00;93551.63;4989238;28;20406;-65